sensor_id;sensor_type;location;lat;lon;timestamp;P1;durP1;ratioP1;P2;durP2;ratioP2
11935;SDS011;6027;48.576;9.180;2022-12-18T00:01:20;35.47;;;13.70;;
11935;SDS011;6027;48.576;9.180;2022-12-18T00:03:47;36.07;;;13.80;;
11935;SDS011;6027;48.576;9.180;2022-12-18T00:06:13;32.10;;;14.17;;
11935;SDS011;6027;48.576;9.180;2022-12-18T00:08:40;39.23;;;13.90;;
11935;SDS011;6027;48.576;9.180;2022-12-18T00:11:08;35.47;;;13.77;;
11935;SDS011;6027;48.576;9.180;2022-12-18T00:13:35;33.47;;;13.97;;
11935;SDS011;6027;48.576;9.180;2022-12-18T00:16:05;47.27;;;15.43;;
11935;SDS011;6027;48.576;9.180;2022-12-18T00:18:36;55.30;;;19.13;;
11935;SDS011;6027;48.576;9.180;2022-12-18T00:21:02;39.37;;;15.03;;
11935;SDS011;6027;48.576;9.180;2022-12-18T00:23:30;37.90;;;16.17;;
11935;SDS011;6027;48.576;9.180;2022-12-18T00:26:03;36.30;;;15.90;;
11935;SDS011;6027;48.576;9.180;2022-12-18T00:28:31;35.73;;;14.60;;
11935;SDS011;6027;48.576;9.180;2022-12-18T00:31:06;30.67;;;15.23;;
11935;SDS011;6027;48.576;9.180;2022-12-18T00:33:33;38.00;;;14.27;;
11935;SDS011;6027;48.576;9.180;2022-12-18T00:36:00;31.03;;;13.73;;
11935;SDS011;6027;48.576;9.180;2022-12-18T00:38:29;30.27;;;14.63;;
11935;SDS011;6027;48.576;9.180;2022-12-18T00:40:54;36.60;;;15.57;;
11935;SDS011;6027;48.576;9.180;2022-12-18T00:43:20;35.93;;;13.67;;
11935;SDS011;6027;48.576;9.180;2022-12-18T00:45:45;32.40;;;16.03;;
11935;SDS011;6027;48.576;9.180;2022-12-18T00:48:11;36.40;;;15.63;;
11935;SDS011;6027;48.576;9.180;2022-12-18T00:50:36;36.93;;;13.23;;
11935;SDS011;6027;48.576;9.180;2022-12-18T00:53:01;33.60;;;13.67;;
11935;SDS011;6027;48.576;9.180;2022-12-18T00:55:27;32.43;;;14.27;;
11935;SDS011;6027;48.576;9.180;2022-12-18T00:57:52;34.20;;;14.47;;
11935;SDS011;6027;48.576;9.180;2022-12-18T01:00:18;31.37;;;14.53;;
11935;SDS011;6027;48.576;9.180;2022-12-18T01:02:44;34.07;;;14.67;;
11935;SDS011;6027;48.576;9.180;2022-12-18T01:05:10;30.70;;;14.63;;
11935;SDS011;6027;48.576;9.180;2022-12-18T01:07:37;37.40;;;15.13;;
11935;SDS011;6027;48.576;9.180;2022-12-18T01:10:03;33.93;;;14.57;;
11935;SDS011;6027;48.576;9.180;2022-12-18T01:12:29;32.60;;;16.03;;
11935;SDS011;6027;48.576;9.180;2022-12-18T01:14:55;39.57;;;17.57;;
11935;SDS011;6027;48.576;9.180;2022-12-18T01:17:20;41.97;;;17.50;;
11935;SDS011;6027;48.576;9.180;2022-12-18T01:19:46;39.87;;;16.80;;
11935;SDS011;6027;48.576;9.180;2022-12-18T01:22:11;31.90;;;14.80;;
11935;SDS011;6027;48.576;9.180;2022-12-18T01:24:37;28.03;;;13.77;;
11935;SDS011;6027;48.576;9.180;2022-12-18T01:27:02;24.80;;;11.30;;
11935;SDS011;6027;48.576;9.180;2022-12-18T01:29:28;26.97;;;12.30;;
11935;SDS011;6027;48.576;9.180;2022-12-18T01:31:56;31.07;;;11.80;;
11935;SDS011;6027;48.576;9.180;2022-12-18T01:34:23;24.40;;;12.13;;
11935;SDS011;6027;48.576;9.180;2022-12-18T01:36:49;27.27;;;12.13;;
11935;SDS011;6027;48.576;9.180;2022-12-18T01:39:17;21.83;;;11.20;;
11935;SDS011;6027;48.576;9.180;2022-12-18T01:41:43;29.13;;;12.63;;
11935;SDS011;6027;48.576;9.180;2022-12-18T01:53:05;29.80;;;12.37;;
11935;SDS011;6027;48.576;9.180;2022-12-18T01:55:37;33.77;;;13.13;;
11935;SDS011;6027;48.576;9.180;2022-12-18T01:58:05;24.13;;;11.30;;
11935;SDS011;6027;48.576;9.180;2022-12-18T02:00:31;31.83;;;13.80;;
11935;SDS011;6027;48.576;9.180;2022-12-18T02:02:57;27.20;;;12.40;;
11935;SDS011;6027;48.576;9.180;2022-12-18T02:05:26;28.00;;;13.33;;
11935;SDS011;6027;48.576;9.180;2022-12-18T02:10:47;32.93;;;13.97;;
11935;SDS011;6027;48.576;9.180;2022-12-18T02:13:20;31.10;;;13.17;;
11935;SDS011;6027;48.576;9.180;2022-12-18T02:18:50;24.83;;;11.90;;
11935;SDS011;6027;48.576;9.180;2022-12-18T02:21:31;24.07;;;12.30;;
11935;SDS011;6027;48.576;9.180;2022-12-18T02:26:43;31.37;;;13.70;;
11935;SDS011;6027;48.576;9.180;2022-12-18T02:29:18;21.83;;;11.70;;
11935;SDS011;6027;48.576;9.180;2022-12-18T02:31:51;31.03;;;13.37;;
11935;SDS011;6027;48.576;9.180;2022-12-18T02:34:19;28.57;;;12.77;;
11935;SDS011;6027;48.576;9.180;2022-12-18T02:36:49;31.97;;;12.80;;
11935;SDS011;6027;48.576;9.180;2022-12-18T02:39:16;26.73;;;13.20;;
11935;SDS011;6027;48.576;9.180;2022-12-18T02:41:42;27.93;;;13.10;;
11935;SDS011;6027;48.576;9.180;2022-12-18T02:44:09;30.47;;;13.67;;
11935;SDS011;6027;48.576;9.180;2022-12-18T02:46:41;32.20;;;13.33;;
11935;SDS011;6027;48.576;9.180;2022-12-18T02:49:17;30.43;;;13.17;;
11935;SDS011;6027;48.576;9.180;2022-12-18T02:57:36;26.50;;;12.70;;
11935;SDS011;6027;48.576;9.180;2022-12-18T03:00:12;29.17;;;12.87;;
11935;SDS011;6027;48.576;9.180;2022-12-18T03:07:36;23.87;;;11.57;;
11935;SDS011;6027;48.576;9.180;2022-12-18T03:10:07;26.77;;;11.57;;
11935;SDS011;6027;48.576;9.180;2022-12-18T03:12:42;25.47;;;11.97;;
11935;SDS011;6027;48.576;9.180;2022-12-18T03:15:14;25.60;;;12.67;;
11935;SDS011;6027;48.576;9.180;2022-12-18T03:17:52;29.47;;;12.17;;
11935;SDS011;6027;48.576;9.180;2022-12-18T03:20:24;26.10;;;12.43;;
11935;SDS011;6027;48.576;9.180;2022-12-18T03:22:53;28.77;;;13.17;;
11935;SDS011;6027;48.576;9.180;2022-12-18T03:25:24;27.53;;;12.67;;
11935;SDS011;6027;48.576;9.180;2022-12-18T03:27:53;28.27;;;13.00;;
11935;SDS011;6027;48.576;9.180;2022-12-18T03:30:22;26.73;;;13.30;;
11935;SDS011;6027;48.576;9.180;2022-12-18T03:32:54;28.93;;;13.23;;
11935;SDS011;6027;48.576;9.180;2022-12-18T03:35:29;27.93;;;12.73;;
11935;SDS011;6027;48.576;9.180;2022-12-18T03:37:57;27.60;;;13.00;;
11935;SDS011;6027;48.576;9.180;2022-12-18T03:40:28;23.90;;;11.83;;
11935;SDS011;6027;48.576;9.180;2022-12-18T03:43:08;30.17;;;13.53;;
11935;SDS011;6027;48.576;9.180;2022-12-18T03:45:48;24.43;;;13.43;;
11935;SDS011;6027;48.576;9.180;2022-12-18T03:48:32;26.97;;;13.07;;
11935;SDS011;6027;48.576;9.180;2022-12-18T03:51:27;24.17;;;13.53;;
11935;SDS011;6027;48.576;9.180;2022-12-18T03:54:07;19.10;;;12.07;;
11935;SDS011;6027;48.576;9.180;2022-12-18T03:57:09;25.97;;;13.37;;
11935;SDS011;6027;48.576;9.180;2022-12-18T03:59:31;29.67;;;13.17;;
11935;SDS011;6027;48.576;9.180;2022-12-18T04:01:59;28.67;;;13.70;;
11935;SDS011;6027;48.576;9.180;2022-12-18T04:04:28;26.13;;;13.53;;
11935;SDS011;6027;48.576;9.180;2022-12-18T04:06:55;26.47;;;13.60;;
11935;SDS011;6027;48.576;9.180;2022-12-18T04:09:22;26.53;;;13.00;;
11935;SDS011;6027;48.576;9.180;2022-12-18T04:11:48;27.60;;;13.03;;
11935;SDS011;6027;48.576;9.180;2022-12-18T04:14:13;29.03;;;13.30;;
11935;SDS011;6027;48.576;9.180;2022-12-18T04:16:39;26.27;;;14.10;;
11935;SDS011;6027;48.576;9.180;2022-12-18T04:19:04;28.37;;;13.17;;
11935;SDS011;6027;48.576;9.180;2022-12-18T04:21:30;27.50;;;13.50;;
11935;SDS011;6027;48.576;9.180;2022-12-18T04:23:55;29.53;;;13.47;;
11935;SDS011;6027;48.576;9.180;2022-12-18T04:26:21;25.70;;;13.73;;
11935;SDS011;6027;48.576;9.180;2022-12-18T04:28:46;26.37;;;13.70;;
11935;SDS011;6027;48.576;9.180;2022-12-18T04:31:12;26.23;;;12.27;;
11935;SDS011;6027;48.576;9.180;2022-12-18T04:33:37;30.20;;;12.60;;
11935;SDS011;6027;48.576;9.180;2022-12-18T04:36:03;28.87;;;12.87;;
11935;SDS011;6027;48.576;9.180;2022-12-18T04:38:28;23.00;;;12.50;;
11935;SDS011;6027;48.576;9.180;2022-12-18T04:40:54;25.23;;;13.73;;
11935;SDS011;6027;48.576;9.180;2022-12-18T04:43:19;26.83;;;13.03;;
11935;SDS011;6027;48.576;9.180;2022-12-18T04:45:45;25.90;;;12.83;;
11935;SDS011;6027;48.576;9.180;2022-12-18T04:48:10;24.93;;;13.23;;
11935;SDS011;6027;48.576;9.180;2022-12-18T04:50:37;32.97;;;12.87;;
11935;SDS011;6027;48.576;9.180;2022-12-18T04:53:02;22.83;;;11.90;;
11935;SDS011;6027;48.576;9.180;2022-12-18T04:55:28;27.43;;;12.40;;
11935;SDS011;6027;48.576;9.180;2022-12-18T04:57:53;23.27;;;12.80;;
11935;SDS011;6027;48.576;9.180;2022-12-18T05:00:19;25.00;;;12.37;;
11935;SDS011;6027;48.576;9.180;2022-12-18T05:02:44;26.17;;;13.23;;
11935;SDS011;6027;48.576;9.180;2022-12-18T05:05:10;27.73;;;13.17;;
11935;SDS011;6027;48.576;9.180;2022-12-18T05:07:36;26.20;;;12.37;;
11935;SDS011;6027;48.576;9.180;2022-12-18T05:10:01;27.87;;;13.77;;
11935;SDS011;6027;48.576;9.180;2022-12-18T05:12:28;25.87;;;12.47;;
11935;SDS011;6027;48.576;9.180;2022-12-18T05:14:53;28.50;;;12.67;;
11935;SDS011;6027;48.576;9.180;2022-12-18T05:17:19;42.07;;;15.00;;
11935;SDS011;6027;48.576;9.180;2022-12-18T05:19:44;27.27;;;13.83;;
11935;SDS011;6027;48.576;9.180;2022-12-18T05:22:10;28.50;;;12.33;;
11935;SDS011;6027;48.576;9.180;2022-12-18T05:24:35;24.83;;;10.53;;
11935;SDS011;6027;48.576;9.180;2022-12-18T05:27:01;26.00;;;12.20;;
11935;SDS011;6027;48.576;9.180;2022-12-18T05:29:26;41.60;;;18.63;;
11935;SDS011;6027;48.576;9.180;2022-12-18T05:31:51;40.20;;;19.37;;
11935;SDS011;6027;48.576;9.180;2022-12-18T05:34:17;46.30;;;23.67;;
11935;SDS011;6027;48.576;9.180;2022-12-18T05:36:42;45.70;;;20.97;;
11935;SDS011;6027;48.576;9.180;2022-12-18T05:39:08;44.10;;;18.20;;
11935;SDS011;6027;48.576;9.180;2022-12-18T05:41:34;41.97;;;17.37;;
11935;SDS011;6027;48.576;9.180;2022-12-18T05:43:59;34.70;;;15.30;;
11935;SDS011;6027;48.576;9.180;2022-12-18T05:46:25;34.60;;;15.33;;
11935;SDS011;6027;48.576;9.180;2022-12-18T05:48:50;30.43;;;14.43;;
11935;SDS011;6027;48.576;9.180;2022-12-18T05:51:18;30.77;;;15.17;;
11935;SDS011;6027;48.576;9.180;2022-12-18T05:53:45;32.33;;;14.27;;
11935;SDS011;6027;48.576;9.180;2022-12-18T05:56:13;28.93;;;13.87;;
11935;SDS011;6027;48.576;9.180;2022-12-18T05:58:40;32.83;;;14.63;;
11935;SDS011;6027;48.576;9.180;2022-12-18T06:03:46;32.70;;;14.27;;
11935;SDS011;6027;48.576;9.180;2022-12-18T06:06:21;25.20;;;12.57;;
11935;SDS011;6027;48.576;9.180;2022-12-18T06:08:48;30.20;;;13.00;;
11935;SDS011;6027;48.576;9.180;2022-12-18T06:11:19;28.07;;;13.03;;
11935;SDS011;6027;48.576;9.180;2022-12-18T06:13:46;25.23;;;12.73;;
11935;SDS011;6027;48.576;9.180;2022-12-18T06:16:11;26.03;;;12.23;;
11935;SDS011;6027;48.576;9.180;2022-12-18T06:18:37;41.03;;;14.13;;
11935;SDS011;6027;48.576;9.180;2022-12-18T06:21:03;30.17;;;12.93;;
11935;SDS011;6027;48.576;9.180;2022-12-18T06:23:29;30.03;;;13.83;;
11935;SDS011;6027;48.576;9.180;2022-12-18T06:25:54;30.07;;;16.30;;
11935;SDS011;6027;48.576;9.180;2022-12-18T06:28:20;31.97;;;14.30;;
11935;SDS011;6027;48.576;9.180;2022-12-18T06:30:46;29.67;;;14.07;;
11935;SDS011;6027;48.576;9.180;2022-12-18T06:33:13;33.00;;;15.73;;
11935;SDS011;6027;48.576;9.180;2022-12-18T06:35:40;44.60;;;18.43;;
11935;SDS011;6027;48.576;9.180;2022-12-18T06:38:05;33.43;;;17.17;;
11935;SDS011;6027;48.576;9.180;2022-12-18T06:40:31;40.43;;;18.67;;
11935;SDS011;6027;48.576;9.180;2022-12-18T06:42:57;31.90;;;16.70;;
11935;SDS011;6027;48.576;9.180;2022-12-18T06:45:22;31.20;;;17.03;;
11935;SDS011;6027;48.576;9.180;2022-12-18T06:47:48;32.13;;;16.23;;
11935;SDS011;6027;48.576;9.180;2022-12-18T06:50:13;27.53;;;14.17;;
11935;SDS011;6027;48.576;9.180;2022-12-18T06:52:39;35.63;;;17.37;;
11935;SDS011;6027;48.576;9.180;2022-12-18T06:55:09;35.57;;;16.03;;
11935;SDS011;6027;48.576;9.180;2022-12-18T06:57:35;32.37;;;14.10;;
11935;SDS011;6027;48.576;9.180;2022-12-18T07:00:02;33.40;;;14.97;;
11935;SDS011;6027;48.576;9.180;2022-12-18T07:02:28;28.83;;;13.93;;
11935;SDS011;6027;48.576;9.180;2022-12-18T07:04:53;35.50;;;14.33;;
11935;SDS011;6027;48.576;9.180;2022-12-18T07:07:19;33.33;;;13.23;;
11935;SDS011;6027;48.576;9.180;2022-12-18T07:09:44;30.47;;;14.17;;
11935;SDS011;6027;48.576;9.180;2022-12-18T07:12:10;28.77;;;14.30;;
11935;SDS011;6027;48.576;9.180;2022-12-18T07:14:35;26.43;;;13.40;;
11935;SDS011;6027;48.576;9.180;2022-12-18T07:17:01;26.50;;;13.47;;
11935;SDS011;6027;48.576;9.180;2022-12-18T07:19:26;21.67;;;11.40;;
11935;SDS011;6027;48.576;9.180;2022-12-18T07:21:52;35.10;;;15.20;;
11935;SDS011;6027;48.576;9.180;2022-12-18T07:24:17;27.20;;;13.87;;
11935;SDS011;6027;48.576;9.180;2022-12-18T07:26:45;23.50;;;12.50;;
11935;SDS011;6027;48.576;9.180;2022-12-18T07:29:11;28.73;;;13.87;;
11935;SDS011;6027;48.576;9.180;2022-12-18T07:31:36;34.93;;;18.07;;
11935;SDS011;6027;48.576;9.180;2022-12-18T07:34:01;33.60;;;15.17;;
11935;SDS011;6027;48.576;9.180;2022-12-18T07:36:27;29.43;;;14.20;;
11935;SDS011;6027;48.576;9.180;2022-12-18T07:38:52;26.67;;;14.13;;
11935;SDS011;6027;48.576;9.180;2022-12-18T07:41:18;25.93;;;13.97;;
11935;SDS011;6027;48.576;9.180;2022-12-18T07:43:44;33.97;;;15.50;;
11935;SDS011;6027;48.576;9.180;2022-12-18T07:46:09;34.50;;;16.83;;
11935;SDS011;6027;48.576;9.180;2022-12-18T07:48:36;36.00;;;19.20;;
11935;SDS011;6027;48.576;9.180;2022-12-18T07:51:02;40.33;;;17.43;;
11935;SDS011;6027;48.576;9.180;2022-12-18T07:53:29;38.20;;;18.67;;
11935;SDS011;6027;48.576;9.180;2022-12-18T07:55:56;35.80;;;19.53;;
11935;SDS011;6027;48.576;9.180;2022-12-18T07:58:22;37.27;;;19.07;;
11935;SDS011;6027;48.576;9.180;2022-12-18T08:00:49;32.20;;;18.27;;
11935;SDS011;6027;48.576;9.180;2022-12-18T08:03:15;35.17;;;18.10;;
11935;SDS011;6027;48.576;9.180;2022-12-18T08:05:40;31.63;;;15.17;;
11935;SDS011;6027;48.576;9.180;2022-12-18T08:08:06;31.70;;;14.63;;
11935;SDS011;6027;48.576;9.180;2022-12-18T08:10:31;29.03;;;14.90;;
11935;SDS011;6027;48.576;9.180;2022-12-18T08:12:57;30.67;;;15.17;;
11935;SDS011;6027;48.576;9.180;2022-12-18T08:15:22;31.10;;;15.17;;
11935;SDS011;6027;48.576;9.180;2022-12-18T08:20:23;33.27;;;14.80;;
11935;SDS011;6027;48.576;9.180;2022-12-18T08:22:49;28.27;;;13.80;;
11935;SDS011;6027;48.576;9.180;2022-12-18T08:25:15;40.60;;;15.47;;
11935;SDS011;6027;48.576;9.180;2022-12-18T08:27:40;31.33;;;14.03;;
11935;SDS011;6027;48.576;9.180;2022-12-18T08:30:06;33.40;;;14.10;;
11935;SDS011;6027;48.576;9.180;2022-12-18T08:32:32;28.87;;;14.40;;
11935;SDS011;6027;48.576;9.180;2022-12-18T08:34:58;29.57;;;14.67;;
11935;SDS011;6027;48.576;9.180;2022-12-18T08:37:24;34.93;;;14.90;;
11935;SDS011;6027;48.576;9.180;2022-12-18T08:39:50;32.80;;;14.97;;
11935;SDS011;6027;48.576;9.180;2022-12-18T08:42:15;32.03;;;14.27;;
11935;SDS011;6027;48.576;9.180;2022-12-18T08:44:59;60.50;;;29.17;;
11935;SDS011;6027;48.576;9.180;2022-12-18T08:47:25;106.23;;;49.30;;
11935;SDS011;6027;48.576;9.180;2022-12-18T08:49:51;69.80;;;31.70;;
11935;SDS011;6027;48.576;9.180;2022-12-18T08:52:16;59.70;;;27.63;;
11935;SDS011;6027;48.576;9.180;2022-12-18T08:54:42;54.97;;;28.17;;
11935;SDS011;6027;48.576;9.180;2022-12-18T08:57:07;58.83;;;29.60;;
11935;SDS011;6027;48.576;9.180;2022-12-18T08:59:33;50.53;;;23.73;;
11935;SDS011;6027;48.576;9.180;2022-12-18T09:01:58;43.93;;;18.97;;
11935;SDS011;6027;48.576;9.180;2022-12-18T09:04:24;39.77;;;19.63;;
11935;SDS011;6027;48.576;9.180;2022-12-18T09:06:49;43.10;;;18.60;;
11935;SDS011;6027;48.576;9.180;2022-12-18T09:09:14;40.13;;;19.73;;
11935;SDS011;6027;48.576;9.180;2022-12-18T09:11:40;42.63;;;19.13;;
11935;SDS011;6027;48.576;9.180;2022-12-18T09:14:05;48.33;;;21.97;;
11935;SDS011;6027;48.576;9.180;2022-12-18T09:16:31;46.63;;;21.47;;
11935;SDS011;6027;48.576;9.180;2022-12-18T09:18:57;85.30;;;37.33;;
11935;SDS011;6027;48.576;9.180;2022-12-18T09:21:27;51.17;;;25.93;;
11935;SDS011;6027;48.576;9.180;2022-12-18T09:23:55;58.03;;;29.50;;
11935;SDS011;6027;48.576;9.180;2022-12-18T09:26:22;48.07;;;24.50;;
11935;SDS011;6027;48.576;9.180;2022-12-18T09:28:48;52.20;;;24.47;;
11935;SDS011;6027;48.576;9.180;2022-12-18T09:31:15;47.27;;;24.70;;
11935;SDS011;6027;48.576;9.180;2022-12-18T09:33:41;41.77;;;22.10;;
11935;SDS011;6027;48.576;9.180;2022-12-18T09:36:08;46.50;;;24.60;;
11935;SDS011;6027;48.576;9.180;2022-12-18T09:38:35;41.27;;;20.80;;
11935;SDS011;6027;48.576;9.180;2022-12-18T09:44:17;47.27;;;24.10;;
11935;SDS011;6027;48.576;9.180;2022-12-18T09:46:44;43.97;;;25.10;;
11935;SDS011;6027;48.576;9.180;2022-12-18T09:49:16;54.90;;;28.67;;
11935;SDS011;6027;48.576;9.180;2022-12-18T09:54:24;48.17;;;24.67;;
11935;SDS011;6027;48.576;9.180;2022-12-18T09:56:55;45.63;;;24.60;;
11935;SDS011;6027;48.576;9.180;2022-12-18T09:59:25;45.73;;;24.67;;
11935;SDS011;6027;48.576;9.180;2022-12-18T10:01:56;47.10;;;24.77;;
11935;SDS011;6027;48.576;9.180;2022-12-18T10:04:35;44.40;;;23.63;;
11935;SDS011;6027;48.576;9.180;2022-12-18T10:07:03;51.37;;;26.20;;
11935;SDS011;6027;48.576;9.180;2022-12-18T10:09:52;43.47;;;24.90;;
11935;SDS011;6027;48.576;9.180;2022-12-18T10:18:39;40.67;;;22.63;;
11935;SDS011;6027;48.576;9.180;2022-12-18T10:21:18;41.20;;;23.30;;
11935;SDS011;6027;48.576;9.180;2022-12-18T10:23:50;40.80;;;21.93;;
11935;SDS011;6027;48.576;9.180;2022-12-18T10:26:38;43.40;;;23.97;;
11935;SDS011;6027;48.576;9.180;2022-12-18T10:29:14;41.57;;;22.70;;
11935;SDS011;6027;48.576;9.180;2022-12-18T10:31:40;50.47;;;23.90;;
11935;SDS011;6027;48.576;9.180;2022-12-18T10:34:10;41.93;;;22.77;;
11935;SDS011;6027;48.576;9.180;2022-12-18T10:36:36;42.90;;;22.77;;
11935;SDS011;6027;48.576;9.180;2022-12-18T10:39:21;40.30;;;22.67;;
11935;SDS011;6027;48.576;9.180;2022-12-18T10:41:48;39.67;;;23.47;;
11935;SDS011;6027;48.576;9.180;2022-12-18T10:44:16;42.33;;;23.70;;
11935;SDS011;6027;48.576;9.180;2022-12-18T10:46:54;46.17;;;25.70;;
11935;SDS011;6027;48.576;9.180;2022-12-18T10:49:29;44.93;;;25.10;;
11935;SDS011;6027;48.576;9.180;2022-12-18T10:52:11;43.87;;;25.40;;
11935;SDS011;6027;48.576;9.180;2022-12-18T10:54:45;48.30;;;25.03;;
11935;SDS011;6027;48.576;9.180;2022-12-18T10:57:14;50.93;;;26.93;;
11935;SDS011;6027;48.576;9.180;2022-12-18T10:59:49;41.37;;;25.10;;
11935;SDS011;6027;48.576;9.180;2022-12-18T11:02:27;48.87;;;26.57;;
11935;SDS011;6027;48.576;9.180;2022-12-18T11:05:04;46.57;;;27.87;;
11935;SDS011;6027;48.576;9.180;2022-12-18T11:07:57;36.90;;;21.80;;
11935;SDS011;6027;48.576;9.180;2022-12-18T11:10:31;43.43;;;25.47;;
11935;SDS011;6027;48.576;9.180;2022-12-18T11:15:42;47.20;;;27.13;;
11935;SDS011;6027;48.576;9.180;2022-12-18T11:18:15;45.03;;;27.37;;
11935;SDS011;6027;48.576;9.180;2022-12-18T11:20:41;45.07;;;28.37;;
11935;SDS011;6027;48.576;9.180;2022-12-18T11:23:10;44.53;;;28.23;;
11935;SDS011;6027;48.576;9.180;2022-12-18T11:25:39;41.97;;;28.03;;
11935;SDS011;6027;48.576;9.180;2022-12-18T11:36:25;43.60;;;30.73;;
11935;SDS011;6027;48.576;9.180;2022-12-18T11:38:56;41.73;;;29.00;;
11935;SDS011;6027;48.576;9.180;2022-12-18T11:44:52;41.23;;;28.63;;
11935;SDS011;6027;48.576;9.180;2022-12-18T11:47:24;40.13;;;27.17;;
11935;SDS011;6027;48.576;9.180;2022-12-18T11:50:17;43.63;;;28.33;;
11935;SDS011;6027;48.576;9.180;2022-12-18T11:52:47;39.20;;;25.20;;
11935;SDS011;6027;48.576;9.180;2022-12-18T11:58:00;42.33;;;29.27;;
11935;SDS011;6027;48.576;9.180;2022-12-18T12:00:39;41.50;;;28.30;;
11935;SDS011;6027;48.576;9.180;2022-12-18T12:03:36;43.33;;;29.23;;
11935;SDS011;6027;48.576;9.180;2022-12-18T12:09:17;38.80;;;26.93;;
11935;SDS011;6027;48.576;9.180;2022-12-18T12:17:25;42.60;;;30.87;;
11935;SDS011;6027;48.576;9.180;2022-12-18T12:36:06;45.67;;;30.57;;
11935;SDS011;6027;48.576;9.180;2022-12-18T12:38:54;44.37;;;30.47;;
11935;SDS011;6027;48.576;9.180;2022-12-18T12:41:27;44.73;;;31.00;;
11935;SDS011;6027;48.576;9.180;2022-12-18T12:44:22;45.50;;;31.23;;
11935;SDS011;6027;48.576;9.180;2022-12-18T12:46:52;39.37;;;28.13;;
11935;SDS011;6027;48.576;9.180;2022-12-18T12:49:22;43.33;;;29.23;;
11935;SDS011;6027;48.576;9.180;2022-12-18T12:52:00;40.23;;;29.43;;
11935;SDS011;6027;48.576;9.180;2022-12-18T12:54:31;41.53;;;28.90;;
11935;SDS011;6027;48.576;9.180;2022-12-18T13:02:39;41.90;;;29.47;;
11935;SDS011;6027;48.576;9.180;2022-12-18T13:05:21;42.17;;;31.80;;
11935;SDS011;6027;48.576;9.180;2022-12-18T13:08:05;45.47;;;31.93;;
11935;SDS011;6027;48.576;9.180;2022-12-18T13:10:42;41.17;;;29.23;;
11935;SDS011;6027;48.576;9.180;2022-12-18T13:13:08;39.40;;;28.27;;
11935;SDS011;6027;48.576;9.180;2022-12-18T13:15:44;51.57;;;33.23;;
11935;SDS011;6027;48.576;9.180;2022-12-18T13:18:15;58.07;;;35.87;;
11935;SDS011;6027;48.576;9.180;2022-12-18T13:20:45;52.30;;;34.93;;
11935;SDS011;6027;48.576;9.180;2022-12-18T13:25:53;55.50;;;39.10;;
11935;SDS011;6027;48.576;9.180;2022-12-18T13:31:11;43.23;;;30.13;;
11935;SDS011;6027;48.576;9.180;2022-12-18T13:36:45;47.57;;;33.30;;
11935;SDS011;6027;48.576;9.180;2022-12-18T13:39:20;47.67;;;30.13;;
11935;SDS011;6027;48.576;9.180;2022-12-18T13:41:49;45.17;;;30.47;;
11935;SDS011;6027;48.576;9.180;2022-12-18T13:44:32;49.03;;;31.77;;
11935;SDS011;6027;48.576;9.180;2022-12-18T13:47:01;50.80;;;32.03;;
11935;SDS011;6027;48.576;9.180;2022-12-18T13:49:35;46.73;;;33.40;;
11935;SDS011;6027;48.576;9.180;2022-12-18T13:52:03;48.63;;;34.53;;
11935;SDS011;6027;48.576;9.180;2022-12-18T13:54:42;48.63;;;34.63;;
11935;SDS011;6027;48.576;9.180;2022-12-18T13:57:34;48.27;;;35.30;;
11935;SDS011;6027;48.576;9.180;2022-12-18T14:00:16;64.37;;;45.80;;
11935;SDS011;6027;48.576;9.180;2022-12-18T14:02:49;44.43;;;32.30;;
11935;SDS011;6027;48.576;9.180;2022-12-18T14:05:26;47.07;;;31.23;;
11935;SDS011;6027;48.576;9.180;2022-12-18T14:07:54;40.43;;;30.03;;
11935;SDS011;6027;48.576;9.180;2022-12-18T14:10:25;42.10;;;31.97;;
11935;SDS011;6027;48.576;9.180;2022-12-18T14:12:51;45.90;;;32.97;;
11935;SDS011;6027;48.576;9.180;2022-12-18T14:17:57;46.20;;;30.97;;
11935;SDS011;6027;48.576;9.180;2022-12-18T14:20:26;46.57;;;32.63;;
11935;SDS011;6027;48.576;9.180;2022-12-18T14:22:53;45.70;;;32.67;;
11935;SDS011;6027;48.576;9.180;2022-12-18T14:30:38;47.17;;;32.50;;
11935;SDS011;6027;48.576;9.180;2022-12-18T14:35:35;41.53;;;29.83;;
11935;SDS011;6027;48.576;9.180;2022-12-18T14:40:55;49.60;;;32.57;;
11935;SDS011;6027;48.576;9.180;2022-12-18T14:43:41;47.00;;;32.10;;
11935;SDS011;6027;48.576;9.180;2022-12-18T14:46:53;44.83;;;30.60;;
11935;SDS011;6027;48.576;9.180;2022-12-18T14:49:41;41.50;;;27.70;;
11935;SDS011;6027;48.576;9.180;2022-12-18T14:52:05;41.33;;;29.73;;
11935;SDS011;6027;48.576;9.180;2022-12-18T14:54:45;44.97;;;30.97;;
11935;SDS011;6027;48.576;9.180;2022-12-18T14:57:24;45.37;;;30.57;;
11935;SDS011;6027;48.576;9.180;2022-12-18T15:00:03;49.97;;;35.70;;
11935;SDS011;6027;48.576;9.180;2022-12-18T15:02:39;75.40;;;54.83;;
11935;SDS011;6027;48.576;9.180;2022-12-18T15:08:25;62.93;;;47.70;;
11935;SDS011;6027;48.576;9.180;2022-12-18T15:11:01;60.93;;;40.63;;
11935;SDS011;6027;48.576;9.180;2022-12-18T15:13:27;56.57;;;39.83;;
11935;SDS011;6027;48.576;9.180;2022-12-18T15:15:54;64.33;;;42.80;;
11935;SDS011;6027;48.576;9.180;2022-12-18T15:18:41;69.60;;;45.73;;
11935;SDS011;6027;48.576;9.180;2022-12-18T15:21:10;70.00;;;48.47;;
11935;SDS011;6027;48.576;9.180;2022-12-18T15:26:10;60.10;;;42.10;;
11935;SDS011;6027;48.576;9.180;2022-12-18T15:28:56;57.37;;;41.03;;
11935;SDS011;6027;48.576;9.180;2022-12-18T15:31:28;56.57;;;39.93;;
11935;SDS011;6027;48.576;9.180;2022-12-18T15:36:23;55.57;;;40.97;;
11935;SDS011;6027;48.576;9.180;2022-12-18T15:38:49;61.43;;;43.67;;
11935;SDS011;6027;48.576;9.180;2022-12-18T15:41:16;62.47;;;41.30;;
11935;SDS011;6027;48.576;9.180;2022-12-18T15:43:44;59.77;;;37.60;;
11935;SDS011;6027;48.576;9.180;2022-12-18T15:46:15;51.07;;;34.60;;
11935;SDS011;6027;48.576;9.180;2022-12-18T15:48:46;54.80;;;33.97;;
11935;SDS011;6027;48.576;9.180;2022-12-18T15:51:32;54.63;;;34.50;;
11935;SDS011;6027;48.576;9.180;2022-12-18T15:54:04;54.87;;;34.90;;
11935;SDS011;6027;48.576;9.180;2022-12-18T15:56:34;51.53;;;35.43;;
11935;SDS011;6027;48.576;9.180;2022-12-18T15:59:19;51.17;;;33.70;;
11935;SDS011;6027;48.576;9.180;2022-12-18T16:01:46;51.20;;;33.30;;
11935;SDS011;6027;48.576;9.180;2022-12-18T16:04:13;51.77;;;33.73;;
11935;SDS011;6027;48.576;9.180;2022-12-18T16:06:40;50.00;;;32.70;;
11935;SDS011;6027;48.576;9.180;2022-12-18T16:09:06;53.57;;;34.23;;
11935;SDS011;6027;48.576;9.180;2022-12-18T16:11:32;46.60;;;30.40;;
11935;SDS011;6027;48.576;9.180;2022-12-18T16:14:39;48.63;;;30.70;;
11935;SDS011;6027;48.576;9.180;2022-12-18T16:17:05;45.47;;;29.30;;
11935;SDS011;6027;48.576;9.180;2022-12-18T16:19:34;44.07;;;28.47;;
11935;SDS011;6027;48.576;9.180;2022-12-18T16:22:00;44.30;;;27.80;;
11935;SDS011;6027;48.576;9.180;2022-12-18T16:24:29;51.57;;;30.00;;
11935;SDS011;6027;48.576;9.180;2022-12-18T16:26:57;76.97;;;43.27;;
11935;SDS011;6027;48.576;9.180;2022-12-18T16:29:24;71.33;;;40.83;;
11935;SDS011;6027;48.576;9.180;2022-12-18T16:31:58;67.97;;;39.60;;
11935;SDS011;6027;48.576;9.180;2022-12-18T16:34:26;71.03;;;44.53;;
11935;SDS011;6027;48.576;9.180;2022-12-18T16:36:54;70.03;;;43.73;;
11935;SDS011;6027;48.576;9.180;2022-12-18T16:39:21;68.27;;;41.63;;
11935;SDS011;6027;48.576;9.180;2022-12-18T16:41:46;69.13;;;41.97;;
11935;SDS011;6027;48.576;9.180;2022-12-18T16:44:12;72.80;;;43.43;;
11935;SDS011;6027;48.576;9.180;2022-12-18T16:46:40;68.93;;;41.57;;
11935;SDS011;6027;48.576;9.180;2022-12-18T16:49:08;65.63;;;40.13;;
11935;SDS011;6027;48.576;9.180;2022-12-18T16:51:36;57.60;;;36.03;;